sensor_id;sensor_type;location;lat;lon;timestamp;P1;durP1;ratioP1;P2;durP2;ratioP2
29688;SDS011;16600;47.444;8.334;2022-09-17T00:00:36;2.05;;;1.23;;
29688;SDS011;16600;47.444;8.334;2022-09-17T00:03:02;5.75;;;1.52;;
29688;SDS011;16600;47.444;8.334;2022-09-17T00:05:28;2.03;;;1.27;;
29688;SDS011;16600;47.444;8.334;2022-09-17T00:10:20;5.32;;;1.45;;
29688;SDS011;16600;47.444;8.334;2022-09-17T00:12:46;5.82;;;1.58;;
29688;SDS011;16600;47.444;8.334;2022-09-17T00:17:38;3.10;;;1.38;;
29688;SDS011;16600;47.444;8.334;2022-09-17T00:20:04;3.70;;;1.33;;
29688;SDS011;16600;47.444;8.334;2022-09-17T00:22:33;4.00;;;1.48;;
29688;SDS011;16600;47.444;8.334;2022-09-17T00:25:03;2.90;;;1.67;;
29688;SDS011;16600;47.444;8.334;2022-09-17T00:27:29;3.85;;;1.40;;
29688;SDS011;16600;47.444;8.334;2022-09-17T00:29:55;3.20;;;1.40;;
29688;SDS011;16600;47.444;8.334;2022-09-17T00:32:21;4.45;;;1.70;;
29688;SDS011;16600;47.444;8.334;2022-09-17T00:34:48;3.28;;;1.60;;
29688;SDS011;16600;47.444;8.334;2022-09-17T00:37:17;3.95;;;1.50;;
29688;SDS011;16600;47.444;8.334;2022-09-17T00:39:43;2.78;;;1.70;;
29688;SDS011;16600;47.444;8.334;2022-09-17T00:47:00;4.50;;;1.35;;
29688;SDS011;16600;47.444;8.334;2022-09-17T00:49:27;3.53;;;1.35;;
29688;SDS011;16600;47.444;8.334;2022-09-17T00:54:26;1.98;;;1.35;;
29688;SDS011;16600;47.444;8.334;2022-09-17T00:59:18;3.08;;;1.33;;
29688;SDS011;16600;47.444;8.334;2022-09-17T01:01:44;1.77;;;1.33;;
29688;SDS011;16600;47.444;8.334;2022-09-17T01:09:24;6.22;;;1.77;;
29688;SDS011;16600;47.444;8.334;2022-09-17T01:22:45;3.25;;;1.73;;
29688;SDS011;16600;47.444;8.334;2022-09-17T01:35:48;2.25;;;1.70;;
29688;SDS011;16600;47.444;8.334;2022-09-17T01:38:27;5.55;;;1.63;;
29688;SDS011;16600;47.444;8.334;2022-09-17T01:43:31;5.38;;;1.88;;
29688;SDS011;16600;47.444;8.334;2022-09-17T01:46:01;2.92;;;1.70;;
29688;SDS011;16600;47.444;8.334;2022-09-17T01:48:30;3.08;;;1.52;;
29688;SDS011;16600;47.444;8.334;2022-09-17T01:51:05;4.05;;;1.88;;
29688;SDS011;16600;47.444;8.334;2022-09-17T01:53:43;4.32;;;1.95;;
29688;SDS011;16600;47.444;8.334;2022-09-17T01:56:12;3.65;;;1.63;;
29688;SDS011;16600;47.444;8.334;2022-09-17T01:58:41;2.80;;;1.38;;
29688;SDS011;16600;47.444;8.334;2022-09-17T02:01:09;3.78;;;2.00;;
29688;SDS011;16600;47.444;8.334;2022-09-17T02:03:44;4.72;;;1.77;;
29688;SDS011;16600;47.444;8.334;2022-09-17T02:06:16;2.47;;;1.70;;
29688;SDS011;16600;47.444;8.334;2022-09-17T02:08:50;4.85;;;1.75;;
29688;SDS011;16600;47.444;8.334;2022-09-17T02:11:17;3.03;;;1.88;;
29688;SDS011;16600;47.444;8.334;2022-09-17T02:14:01;3.15;;;1.77;;
29688;SDS011;16600;47.444;8.334;2022-09-17T02:16:29;3.15;;;1.73;;
29688;SDS011;16600;47.444;8.334;2022-09-17T02:21:43;5.13;;;2.00;;
29688;SDS011;16600;47.444;8.334;2022-09-17T02:26:38;3.17;;;1.80;;
29688;SDS011;16600;47.444;8.334;2022-09-17T02:29:07;2.70;;;1.83;;
29688;SDS011;16600;47.444;8.334;2022-09-17T02:31:33;5.15;;;2.15;;
29688;SDS011;16600;47.444;8.334;2022-09-17T02:36:26;4.38;;;1.98;;
29688;SDS011;16600;47.444;8.334;2022-09-17T02:38:59;2.67;;;1.85;;
29688;SDS011;16600;47.444;8.334;2022-09-17T02:41:31;2.63;;;1.65;;
29688;SDS011;16600;47.444;8.334;2022-09-17T02:46:58;6.53;;;2.00;;
29688;SDS011;16600;47.444;8.334;2022-09-17T02:49:39;4.60;;;2.03;;
29688;SDS011;16600;47.444;8.334;2022-09-17T02:57:22;5.32;;;2.08;;
29688;SDS011;16600;47.444;8.334;2022-09-17T02:59:51;3.75;;;1.92;;
29688;SDS011;16600;47.444;8.334;2022-09-17T03:02:22;10.50;;;2.30;;
29688;SDS011;16600;47.444;8.334;2022-09-17T03:04:51;5.45;;;2.38;;
29688;SDS011;16600;47.444;8.334;2022-09-17T03:07:18;11.27;;;2.50;;
29688;SDS011;16600;47.444;8.334;2022-09-17T03:09:44;5.00;;;2.13;;
29688;SDS011;16600;47.444;8.334;2022-09-17T03:12:10;13.00;;;1.98;;
29688;SDS011;16600;47.444;8.334;2022-09-17T03:14:37;9.80;;;2.58;;
29688;SDS011;16600;47.444;8.334;2022-09-17T03:17:03;4.50;;;1.67;;
29688;SDS011;16600;47.444;8.334;2022-09-17T03:19:29;4.45;;;1.58;;
29688;SDS011;16600;47.444;8.334;2022-09-17T03:21:55;4.70;;;1.52;;
29688;SDS011;16600;47.444;8.334;2022-09-17T03:26:47;3.30;;;1.80;;
29688;SDS011;16600;47.444;8.334;2022-09-17T03:29:14;5.47;;;2.13;;
29688;SDS011;16600;47.444;8.334;2022-09-17T03:31:40;2.15;;;1.55;;
29688;SDS011;16600;47.444;8.334;2022-09-17T03:36:34;4.65;;;1.75;;
29688;SDS011;16600;47.444;8.334;2022-09-17T03:39:00;2.20;;;1.70;;
29688;SDS011;16600;47.444;8.334;2022-09-17T03:41:26;5.35;;;2.17;;
29688;SDS011;16600;47.444;8.334;2022-09-17T03:43:52;5.63;;;2.40;;
29688;SDS011;16600;47.444;8.334;2022-09-17T03:48:44;3.30;;;1.73;;
29688;SDS011;16600;47.444;8.334;2022-09-17T03:51:10;6.40;;;1.67;;
29688;SDS011;16600;47.444;8.334;2022-09-17T03:56:03;4.07;;;1.85;;
29688;SDS011;16600;47.444;8.334;2022-09-17T03:58:29;2.92;;;1.63;;
29688;SDS011;16600;47.444;8.334;2022-09-17T04:03:04;1.50;;;1.40;;
29688;SDS011;16600;47.444;8.334;2022-09-17T04:05:30;9.73;;;1.63;;
29688;SDS011;16600;47.444;8.334;2022-09-17T04:10:21;1.58;;;1.25;;
29688;SDS011;16600;47.444;8.334;2022-09-17T04:12:47;1.67;;;1.05;;
29688;SDS011;16600;47.444;8.334;2022-09-17T04:15:13;8.32;;;1.63;;
29688;SDS011;16600;47.444;8.334;2022-09-17T04:20:05;7.40;;;1.80;;
29688;SDS011;16600;47.444;8.334;2022-09-17T04:22:32;2.63;;;1.30;;
29688;SDS011;16600;47.444;8.334;2022-09-17T04:24:58;3.70;;;1.42;;
29688;SDS011;16600;47.444;8.334;2022-09-17T04:29:49;6.05;;;1.50;;
29688;SDS011;16600;47.444;8.334;2022-09-17T04:34:42;6.03;;;1.75;;
29688;SDS011;16600;47.444;8.334;2022-09-17T04:37:11;2.90;;;1.52;;
29688;SDS011;16600;47.444;8.334;2022-09-17T04:39:43;4.97;;;1.65;;
29688;SDS011;16600;47.444;8.334;2022-09-17T04:42:09;4.57;;;1.83;;
29688;SDS011;16600;47.444;8.334;2022-09-17T04:44:35;2.72;;;1.35;;
29688;SDS011;16600;47.444;8.334;2022-09-17T04:47:01;5.25;;;1.73;;
29688;SDS011;16600;47.444;8.334;2022-09-17T04:49:30;4.50;;;1.42;;
29688;SDS011;16600;47.444;8.334;2022-09-17T04:51:57;5.93;;;1.67;;
29688;SDS011;16600;47.444;8.334;2022-09-17T04:54:23;1.70;;;1.33;;
29688;SDS011;16600;47.444;8.334;2022-09-17T04:59:15;3.38;;;1.33;;
29688;SDS011;16600;47.444;8.334;2022-09-17T05:04:08;2.10;;;1.27;;
29688;SDS011;16600;47.444;8.334;2022-09-17T05:06:34;3.00;;;1.25;;
29688;SDS011;16600;47.444;8.334;2022-09-17T05:11:26;3.20;;;1.65;;
29688;SDS011;16600;47.444;8.334;2022-09-17T05:13:52;2.80;;;1.45;;
29688;SDS011;16600;47.444;8.334;2022-09-17T05:18:44;2.17;;;1.10;;
29688;SDS011;16600;47.444;8.334;2022-09-17T05:21:13;4.15;;;1.10;;
29688;SDS011;16600;47.444;8.334;2022-09-17T05:23:39;2.75;;;1.10;;
29688;SDS011;16600;47.444;8.334;2022-09-17T05:26:05;2.53;;;0.93;;
29688;SDS011;16600;47.444;8.334;2022-09-17T05:30:59;3.00;;;1.27;;
29688;SDS011;16600;47.444;8.334;2022-09-17T05:33:26;5.85;;;2.50;;
29688;SDS011;16600;47.444;8.334;2022-09-17T05:38:17;3.22;;;1.70;;
29688;SDS011;16600;47.444;8.334;2022-09-17T05:40:44;8.35;;;1.77;;
29688;SDS011;16600;47.444;8.334;2022-09-17T05:43:10;2.90;;;1.40;;
29688;SDS011;16600;47.444;8.334;2022-09-17T05:45:36;2.85;;;1.60;;
29688;SDS011;16600;47.444;8.334;2022-09-17T05:48:04;5.75;;;1.80;;
29688;SDS011;16600;47.444;8.334;2022-09-17T05:50:31;5.10;;;1.58;;
29688;SDS011;16600;47.444;8.334;2022-09-17T05:53:10;6.53;;;1.40;;
29688;SDS011;16600;47.444;8.334;2022-09-17T05:55:36;2.40;;;1.23;;
29688;SDS011;16600;47.444;8.334;2022-09-17T05:58:10;4.63;;;1.60;;
29688;SDS011;16600;47.444;8.334;2022-09-17T06:00:39;2.63;;;1.15;;
29688;SDS011;16600;47.444;8.334;2022-09-17T06:03:07;3.83;;;1.42;;
29688;SDS011;16600;47.444;8.334;2022-09-17T06:05:39;1.77;;;1.10;;
29688;SDS011;16600;47.444;8.334;2022-09-17T06:08:08;2.58;;;1.10;;
29688;SDS011;16600;47.444;8.334;2022-09-17T06:10:35;10.38;;;1.40;;
29688;SDS011;16600;47.444;8.334;2022-09-17T06:13:05;4.32;;;1.33;;
29688;SDS011;16600;47.444;8.334;2022-09-17T06:15:31;2.97;;;1.33;;
29688;SDS011;16600;47.444;8.334;2022-09-17T06:18:00;1.73;;;1.00;;
29688;SDS011;16600;47.444;8.334;2022-09-17T06:20:26;2.97;;;1.30;;
29688;SDS011;16600;47.444;8.334;2022-09-17T06:22:55;3.70;;;1.17;;
29688;SDS011;16600;47.444;8.334;2022-09-17T06:25:22;1.85;;;1.05;;
29688;SDS011;16600;47.444;8.334;2022-09-17T06:27:48;3.45;;;1.15;;
29688;SDS011;16600;47.444;8.334;2022-09-17T06:30:14;2.30;;;1.33;;
29688;SDS011;16600;47.444;8.334;2022-09-17T06:32:40;2.90;;;1.10;;
29688;SDS011;16600;47.444;8.334;2022-09-17T06:35:07;3.60;;;1.45;;
29688;SDS011;16600;47.444;8.334;2022-09-17T06:37:35;1.90;;;0.90;;
29688;SDS011;16600;47.444;8.334;2022-09-17T06:40:04;2.47;;;1.10;;
29688;SDS011;16600;47.444;8.334;2022-09-17T06:42:31;2.88;;;0.80;;
29688;SDS011;16600;47.444;8.334;2022-09-17T06:44:57;1.75;;;0.98;;
29688;SDS011;16600;47.444;8.334;2022-09-17T06:47:23;1.80;;;1.25;;
29688;SDS011;16600;47.444;8.334;2022-09-17T06:49:52;1.90;;;1.00;;
29688;SDS011;16600;47.444;8.334;2022-09-17T06:52:21;3.05;;;1.15;;
29688;SDS011;16600;47.444;8.334;2022-09-17T06:54:47;5.78;;;1.35;;
29688;SDS011;16600;47.444;8.334;2022-09-17T06:59:39;2.30;;;1.30;;
29688;SDS011;16600;47.444;8.334;2022-09-17T07:02:07;2.72;;;1.42;;
29688;SDS011;16600;47.444;8.334;2022-09-17T07:04:33;4.15;;;1.52;;
29688;SDS011;16600;47.444;8.334;2022-09-17T07:06:59;2.05;;;1.13;;
29688;SDS011;16600;47.444;8.334;2022-09-17T07:11:51;2.08;;;1.13;;
29688;SDS011;16600;47.444;8.334;2022-09-17T07:14:17;7.18;;;1.75;;
29688;SDS011;16600;47.444;8.334;2022-09-17T07:16:43;2.55;;;1.25;;
29688;SDS011;16600;47.444;8.334;2022-09-17T07:21:35;3.65;;;1.25;;
29688;SDS011;16600;47.444;8.334;2022-09-17T07:24:01;1.88;;;0.93;;
29688;SDS011;16600;47.444;8.334;2022-09-17T07:26:30;3.10;;;1.42;;
29688;SDS011;16600;47.444;8.334;2022-09-17T07:28:56;3.92;;;1.42;;
29688;SDS011;16600;47.444;8.334;2022-09-17T07:31:23;1.75;;;1.00;;
29688;SDS011;16600;47.444;8.334;2022-09-17T07:33:49;2.10;;;1.17;;
29688;SDS011;16600;47.444;8.334;2022-09-17T07:36:17;14.77;;;1.13;;
29688;SDS011;16600;47.444;8.334;2022-09-17T07:38:43;1.95;;;1.13;;
29688;SDS011;16600;47.444;8.334;2022-09-17T07:41:11;3.22;;;1.02;;
29688;SDS011;16600;47.444;8.334;2022-09-17T07:43:38;1.75;;;1.00;;
29688;SDS011;16600;47.444;8.334;2022-09-17T07:46:04;2.00;;;0.80;;
29688;SDS011;16600;47.444;8.334;2022-09-17T07:48:31;1.85;;;0.88;;
29688;SDS011;16600;47.444;8.334;2022-09-17T07:50:57;4.03;;;1.13;;
29688;SDS011;16600;47.444;8.334;2022-09-17T07:53:23;2.45;;;1.10;;
29688;SDS011;16600;47.444;8.334;2022-09-17T07:55:50;1.33;;;0.73;;
29688;SDS011;16600;47.444;8.334;2022-09-17T07:58:16;2.33;;;1.08;;
29688;SDS011;16600;47.444;8.334;2022-09-17T08:00:42;2.35;;;0.90;;
29688;SDS011;16600;47.444;8.334;2022-09-17T08:03:08;1.88;;;0.93;;
29688;SDS011;16600;47.444;8.334;2022-09-17T08:05:35;1.33;;;0.70;;
29688;SDS011;16600;47.444;8.334;2022-09-17T08:10:30;2.50;;;1.05;;
29688;SDS011;16600;47.444;8.334;2022-09-17T08:12:56;1.23;;;0.77;;
29688;SDS011;16600;47.444;8.334;2022-09-17T08:18:03;1.60;;;0.95;;
29688;SDS011;16600;47.444;8.334;2022-09-17T08:20:29;2.97;;;0.98;;
29688;SDS011;16600;47.444;8.334;2022-09-17T08:22:58;3.17;;;1.10;;
29688;SDS011;16600;47.444;8.334;2022-09-17T08:25:24;1.80;;;0.80;;
29688;SDS011;16600;47.444;8.334;2022-09-17T08:27:54;1.20;;;0.93;;
29688;SDS011;16600;47.444;8.334;2022-09-17T08:30:21;4.47;;;1.05;;
29688;SDS011;16600;47.444;8.334;2022-09-17T08:32:47;4.30;;;0.80;;
29688;SDS011;16600;47.444;8.334;2022-09-17T08:35:13;1.77;;;1.00;;
29688;SDS011;16600;47.444;8.334;2022-09-17T08:37:40;2.33;;;1.20;;
29688;SDS011;16600;47.444;8.334;2022-09-17T08:40:11;2.78;;;1.10;;
29688;SDS011;16600;47.444;8.334;2022-09-17T08:42:40;1.70;;;0.90;;
29688;SDS011;16600;47.444;8.334;2022-09-17T08:45:11;1.83;;;0.77;;
29688;SDS011;16600;47.444;8.334;2022-09-17T08:47:43;1.90;;;1.00;;
29688;SDS011;16600;47.444;8.334;2022-09-17T08:50:12;3.35;;;0.82;;
29688;SDS011;16600;47.444;8.334;2022-09-17T09:00:38;3.92;;;1.15;;
29688;SDS011;16600;47.444;8.334;2022-09-17T09:03:14;1.80;;;0.63;;
29688;SDS011;16600;47.444;8.334;2022-09-17T09:05:43;1.48;;;0.80;;
29688;SDS011;16600;47.444;8.334;2022-09-17T09:08:15;1.42;;;0.80;;
29688;SDS011;16600;47.444;8.334;2022-09-17T09:10:45;1.08;;;0.73;;
29688;SDS011;16600;47.444;8.334;2022-09-17T09:13:14;2.38;;;0.88;;
29688;SDS011;16600;47.444;8.334;2022-09-17T09:15:55;2.45;;;0.90;;
29688;SDS011;16600;47.444;8.334;2022-09-17T09:18:25;2.25;;;1.15;;
29688;SDS011;16600;47.444;8.334;2022-09-17T09:21:36;2.65;;;1.15;;
29688;SDS011;16600;47.444;8.334;2022-09-17T09:26:18;4.40;;;1.13;;
29688;SDS011;16600;47.444;8.334;2022-09-17T09:33:55;1.67;;;0.82;;
29688;SDS011;16600;47.444;8.334;2022-09-17T09:36:22;2.42;;;1.00;;
29688;SDS011;16600;47.444;8.334;2022-09-17T09:38:53;2.55;;;0.98;;
29688;SDS011;16600;47.444;8.334;2022-09-17T09:49:15;1.48;;;0.90;;
29688;SDS011;16600;47.444;8.334;2022-09-17T09:51:55;1.13;;;0.70;;
29688;SDS011;16600;47.444;8.334;2022-09-17T09:57:11;1.23;;;0.68;;
29688;SDS011;16600;47.444;8.334;2022-09-17T09:59:38;1.70;;;1.00;;
29688;SDS011;16600;47.444;8.334;2022-09-17T10:03:14;1.57;;;0.67;;
29688;SDS011;16600;47.444;8.334;2022-09-17T10:05:53;1.63;;;0.77;;
29688;SDS011;16600;47.444;8.334;2022-09-17T10:10:53;6.63;;;1.15;;
29688;SDS011;16600;47.444;8.334;2022-09-17T10:13:24;0.98;;;0.50;;
29688;SDS011;16600;47.444;8.334;2022-09-17T10:15:51;1.42;;;0.63;;
29688;SDS011;16600;47.444;8.334;2022-09-17T10:18:21;1.77;;;0.40;;
29688;SDS011;16600;47.444;8.334;2022-09-17T10:20:51;2.33;;;0.88;;
29688;SDS011;16600;47.444;8.334;2022-09-17T10:23:18;6.68;;;0.90;;
29688;SDS011;16600;47.444;8.334;2022-09-17T10:25:47;1.83;;;1.10;;
29688;SDS011;16600;47.444;8.334;2022-09-17T10:28:38;3.53;;;0.85;;
29688;SDS011;16600;47.444;8.334;2022-09-17T10:31:06;3.42;;;0.60;;
29688;SDS011;16600;47.444;8.334;2022-09-17T10:33:39;1.48;;;0.57;;
29688;SDS011;16600;47.444;8.334;2022-09-17T10:36:06;1.90;;;0.95;;
29688;SDS011;16600;47.444;8.334;2022-09-17T10:38:38;6.43;;;4.45;;
29688;SDS011;16600;47.444;8.334;2022-09-17T10:41:08;5.95;;;0.95;;
29688;SDS011;16600;47.444;8.334;2022-09-17T10:43:35;3.67;;;1.00;;
29688;SDS011;16600;47.444;8.334;2022-09-17T10:46:01;1.13;;;0.77;;
29688;SDS011;16600;47.444;8.334;2022-09-17T10:48:30;1.25;;;0.60;;
29688;SDS011;16600;47.444;8.334;2022-09-17T10:50:57;2.10;;;0.80;;
29688;SDS011;16600;47.444;8.334;2022-09-17T10:53:23;2.15;;;0.75;;
29688;SDS011;16600;47.444;8.334;2022-09-17T10:58:22;1.95;;;0.70;;
29688;SDS011;16600;47.444;8.334;2022-09-17T11:00:59;0.70;;;0.60;;
29688;SDS011;16600;47.444;8.334;2022-09-17T11:03:47;1.45;;;0.85;;
29688;SDS011;16600;47.444;8.334;2022-09-17T11:07:02;1.15;;;0.60;;
29688;SDS011;16600;47.444;8.334;2022-09-17T11:09:06;1.02;;;0.50;;
29688;SDS011;16600;47.444;8.334;2022-09-17T11:22:25;1.48;;;0.52;;
29688;SDS011;16600;47.444;8.334;2022-09-17T11:28:02;1.38;;;0.70;;
29688;SDS011;16600;47.444;8.334;2022-09-17T11:30:25;2.40;;;0.80;;
29688;SDS011;16600;47.444;8.334;2022-09-17T11:35:36;0.55;;;0.50;;
29688;SDS011;16600;47.444;8.334;2022-09-17T11:38:13;1.30;;;0.70;;
29688;SDS011;16600;47.444;8.334;2022-09-17T11:43:34;4.68;;;0.68;;
29688;SDS011;16600;47.444;8.334;2022-09-17T11:46:04;1.98;;;0.77;;
29688;SDS011;16600;47.444;8.334;2022-09-17T11:48:35;1.63;;;0.80;;
29688;SDS011;16600;47.444;8.334;2022-09-17T11:51:04;3.45;;;0.55;;
29688;SDS011;16600;47.444;8.334;2022-09-17T11:56:07;1.90;;;1.08;;
29688;SDS011;16600;47.444;8.334;2022-09-17T12:05:54;4.25;;;1.00;;
29688;SDS011;16600;47.444;8.334;2022-09-17T12:08:26;2.58;;;0.80;;
29688;SDS011;16600;47.444;8.334;2022-09-17T12:13:28;1.08;;;0.63;;
29688;SDS011;16600;47.444;8.334;2022-09-17T12:18:47;1.15;;;0.57;;
29688;SDS011;16600;47.444;8.334;2022-09-17T12:21:15;1.70;;;0.75;;
29688;SDS011;16600;47.444;8.334;2022-09-17T12:23:44;2.53;;;0.80;;
29688;SDS011;16600;47.444;8.334;2022-09-17T12:26:19;2.53;;;0.75;;
29688;SDS011;16600;47.444;8.334;2022-09-17T12:29:07;1.48;;;0.60;;
29688;SDS011;16600;47.444;8.334;2022-09-17T12:31:41;2.22;;;0.70;;
29688;SDS011;16600;47.444;8.334;2022-09-17T12:37:13;2.42;;;0.73;;
29688;SDS011;16600;47.444;8.334;2022-09-17T12:54:53;3.60;;;1.20;;
29688;SDS011;16600;47.444;8.334;2022-09-17T12:57:41;2.42;;;0.95;;
29688;SDS011;16600;47.444;8.334;2022-09-17T13:00:12;5.30;;;1.13;;
29688;SDS011;16600;47.444;8.334;2022-09-17T13:02:44;2.15;;;1.25;;
29688;SDS011;16600;47.444;8.334;2022-09-17T13:05:26;3.97;;;1.13;;
29688;SDS011;16600;47.444;8.334;2022-09-17T13:08:08;2.97;;;1.00;;
29688;SDS011;16600;47.444;8.334;2022-09-17T13:18:26;2.88;;;1.00;;
29688;SDS011;16600;47.444;8.334;2022-09-17T13:21:10;18.10;;;1.40;;
29688;SDS011;16600;47.444;8.334;2022-09-17T13:23:41;1.33;;;0.95;;
29688;SDS011;16600;47.444;8.334;2022-09-17T13:26:09;4.15;;;1.10;;
29688;SDS011;16600;47.444;8.334;2022-09-17T13:28:38;2.15;;;1.08;;
29688;SDS011;16600;47.444;8.334;2022-09-17T13:31:04;2.67;;;1.20;;
29688;SDS011;16600;47.444;8.334;2022-09-17T13:33:54;3.78;;;1.17;;
29688;SDS011;16600;47.444;8.334;2022-09-17T13:39:01;4.80;;;1.30;;
29688;SDS011;16600;47.444;8.334;2022-09-17T13:41:35;2.00;;;0.93;;
29688;SDS011;16600;47.444;8.334;2022-09-17T13:44:04;4.13;;;1.20;;
29688;SDS011;16600;47.444;8.334;2022-09-17T13:46:31;12.55;;;1.40;;
29688;SDS011;16600;47.444;8.334;2022-09-17T13:48:59;0.73;;;0.65;;
29688;SDS011;16600;47.444;8.334;2022-09-17T13:54:08;3.10;;;1.20;;
29688;SDS011;16600;47.444;8.334;2022-09-17T13:59:05;2.08;;;0.90;;
29688;SDS011;16600;47.444;8.334;2022-09-17T14:13:01;4.03;;;1.25;;
29688;SDS011;16600;47.444;8.334;2022-09-17T14:16:12;4.05;;;1.15;;
29688;SDS011;16600;47.444;8.334;2022-09-17T14:20:48;3.88;;;1.30;;
29688;SDS011;16600;47.444;8.334;2022-09-17T14:25:44;2.42;;;1.02;;
29688;SDS011;16600;47.444;8.334;2022-09-17T14:30:56;1.77;;;0.93;;
29688;SDS011;16600;47.444;8.334;2022-09-17T14:33:24;2.25;;;0.98;;
29688;SDS011;16600;47.444;8.334;2022-09-17T14:36:07;2.30;;;1.10;;
29688;SDS011;16600;47.444;8.334;2022-09-17T14:38:37;3.45;;;1.45;;
29688;SDS011;16600;47.444;8.334;2022-09-17T14:51:21;1.50;;;0.90;;
29688;SDS011;16600;47.444;8.334;2022-09-17T14:53:49;5.05;;;1.40;;
29688;SDS011;16600;47.444;8.334;2022-09-17T14:56:34;2.70;;;1.15;;
29688;SDS011;16600;47.444;8.334;2022-09-17T14:59:03;3.15;;;2.00;;
29688;SDS011;16600;47.444;8.334;2022-09-17T15:01:29;2.95;;;1.40;;
29688;SDS011;16600;47.444;8.334;2022-09-17T15:06:37;3.15;;;1.70;;
29688;SDS011;16600;47.444;8.334;2022-09-17T15:09:04;2.60;;;1.40;;
29688;SDS011;16600;47.444;8.334;2022-09-17T15:11:38;3.03;;;1.30;;
29688;SDS011;16600;47.444;8.334;2022-09-17T15:14:06;2.45;;;1.23;;
29688;SDS011;16600;47.444;8.334;2022-09-17T15:16:35;2.25;;;1.17;;
29688;SDS011;16600;47.444;8.334;2022-09-17T15:19:08;3.50;;;1.60;;
29688;SDS011;16600;47.444;8.334;2022-09-17T15:26:28;3.90;;;1.38;;
29688;SDS011;16600;47.444;8.334;2022-09-17T15:28:56;6.07;;;1.02;;
29688;SDS011;16600;47.444;8.334;2022-09-17T15:31:22;7.03;;;1.50;;
29688;SDS011;16600;47.444;8.334;2022-09-17T15:33:49;1.63;;;0.95;;
29688;SDS011;16600;47.444;8.334;2022-09-17T15:38:40;1.35;;;0.95;;
29688;SDS011;16600;47.444;8.334;2022-09-17T15:41:53;1.00;;;0.63;;
29688;SDS011;16600;47.444;8.334;2022-09-17T15:44:06;4.50;;;1.25;;
29688;SDS011;16600;47.444;8.334;2022-09-17T15:48:59;1.80;;;1.02;;
29688;SDS011;16600;47.444;8.334;2022-09-17T15:51:26;3.63;;;0.95;;
29688;SDS011;16600;47.444;8.334;2022-09-17T15:53:53;1.88;;;0.82;;
29688;SDS011;16600;47.444;8.334;2022-09-17T16:05:48;4.45;;;1.35;;
29688;SDS011;16600;47.444;8.334;2022-09-17T16:10:40;1.85;;;1.05;;
29688;SDS011;16600;47.444;8.334;2022-09-17T16:13:06;2.53;;;1.00;;
29688;SDS011;16600;47.444;8.334;2022-09-17T16:15:34;2.38;;;0.88;;
29688;SDS011;16600;47.444;8.334;2022-09-17T16:18:00;1.23;;;0.80;;
29688;SDS011;16600;47.444;8.334;2022-09-17T16:20:26;2.13;;;0.93;;
29688;SDS011;16600;47.444;8.334;2022-09-17T16:25:22;1.30;;;0.70;;
29688;SDS011;16600;47.444;8.334;2022-09-17T16:32:40;1.83;;;0.80;;
29688;SDS011;16600;47.444;8.334;2022-09-17T16:37:35;2.42;;;0.65;;
29688;SDS011;16600;47.444;8.334;2022-09-17T16:40:01;1.25;;;0.88;;
29688;SDS011;16600;47.444;8.334;2022-09-17T16:42:30;2.15;;;0.80;;
29688;SDS011;16600;47.444;8.334;2022-09-17T16:44:56;0.68;;;0.60;;
29688;SDS011;16600;47.444;8.334;2022-09-17T16:47:24;1.30;;;0.80;;
29688;SDS011;16600;47.444;8.334;2022-09-17T16:52:16;1.33;;;0.75;;
29688;SDS011;16600;47.444;8.334;2022-09-17T16:57:08;2.20;;;0.80;;
29688;SDS011;16600;47.444;8.334;2022-09-17T17:01:59;2.10;;;1.02;;
29688;SDS011;16600;47.444;8.334;2022-09-17T17:04:26;1.73;;;0.98;;
29688;SDS011;16600;47.444;8.334;2022-09-17T17:06:53;3.20;;;0.95;;
29688;SDS011;16600;47.444;8.334;2022-09-17T17:09:22;2.30;;;1.05;;
29688;SDS011;16600;47.444;8.334;2022-09-17T17:11:48;0.88;;;0.55;;
29688;SDS011;16600;47.444;8.334;2022-09-17T17:14:16;1.70;;;0.70;;
29688;SDS011;16600;47.444;8.334;2022-09-17T17:16:42;1.48;;;0.95;;
29688;SDS011;16600;47.444;8.334;2022-09-17T17:19:09;2.33;;;0.80;;
29688;SDS011;16600;47.444;8.334;2022-09-17T17:21:35;2.70;;;1.13;;
29688;SDS011;16600;47.444;8.334;2022-09-17T17:26:28;2.72;;;1.52;;
29688;SDS011;16600;47.444;8.334;2022-09-17T17:28:54;3.90;;;2.47;;
29688;SDS011;16600;47.444;8.334;2022-09-17T17:31:20;8.95;;;1.67;;
29688;SDS011;16600;47.444;8.334;2022-09-17T17:33:46;4.47;;;1.50;;
29688;SDS011;16600;47.444;8.334;2022-09-17T17:36:12;2.58;;;1.00;;
29688;SDS011;16600;47.444;8.334;2022-09-17T17:41:11;9.40;;;1.00;;
29688;SDS011;16600;47.444;8.334;2022-09-17T17:43:37;3.55;;;1.20;;
29688;SDS011;16600;47.444;8.334;2022-09-17T17:46:04;2.53;;;0.90;;
29688;SDS011;16600;47.444;8.334;2022-09-17T17:48:31;2.38;;;1.20;;
29688;SDS011;16600;47.444;8.334;2022-09-17T17:51:08;1.98;;;1.10;;
29688;SDS011;16600;47.444;8.334;2022-09-17T17:53:34;2.42;;;0.98;;
29688;SDS011;16600;47.444;8.334;2022-09-17T17:56:02;1.58;;;0.98;;
29688;SDS011;16600;47.444;8.334;2022-09-17T17:58:29;0.93;;;0.82;;
29688;SDS011;16600;47.444;8.334;2022-09-17T18:00:55;1.92;;;1.00;;
29688;SDS011;16600;47.444;8.334;2022-09-17T18:03:21;1.83;;;0.95;;
29688;SDS011;16600;47.444;8.334;2022-09-17T18:05:51;5.45;;;0.95;;
29688;SDS011;16600;47.444;8.334;2022-09-17T18:08:17;3.08;;;0.93;;
29688;SDS011;16600;47.444;8.334;2022-09-17T18:10:50;3.28;;;1.38;;
29688;SDS011;16600;47.444;8.334;2022-09-17T18:13:17;4.80;;;1.23;;
29688;SDS011;16600;47.444;8.334;2022-09-17T18:15:53;1.67;;;0.95;;
29688;SDS011;16600;47.444;8.334;2022-09-17T18:18:20;4.70;;;1.27;;
29688;SDS011;16600;47.444;8.334;2022-09-17T18:20:46;2.70;;;1.27;;
29688;SDS011;16600;47.444;8.334;2022-09-17T18:23:13;1.67;;;1.13;;
29688;SDS011;16600;47.444;8.334;2022-09-17T18:25:39;0.90;;;0.80;;
29688;SDS011;16600;47.444;8.334;2022-09-17T18:28:05;3.63;;;1.02;;
29688;SDS011;16600;47.444;8.334;2022-09-17T18:32:57;1.70;;;0.80;;
29688;SDS011;16600;47.444;8.334;2022-09-17T18:35:26;1.98;;;1.25;;
29688;SDS011;16600;47.444;8.334;2022-09-17T18:37:52;1.95;;;0.80;;
29688;SDS011;16600;47.444;8.334;2022-09-17T18:40:18;3.90;;;1.35;;
29688;SDS011;16600;47.444;8.334;2022-09-17T18:45:10;3.08;;;1.23;;
29688;SDS011;16600;47.444;8.334;2022-09-17T18:50:02;8.23;;;1.20;;
29688;SDS011;16600;47.444;8.334;2022-09-17T18:52:31;7.85;;;1.45;;
29688;SDS011;16600;47.444;8.334;2022-09-17T18:54:57;1.65;;;0.98;;
29688;SDS011;16600;47.444;8.334;2022-09-17T18:57:25;4.03;;;1.10;;
29688;SDS011;16600;47.444;8.334;2022-09-17T18:59:52;5.35;;;1.60;;
29688;SDS011;16600;47.444;8.334;2022-09-17T19:04:43;2.17;;;1.05;;
29688;SDS011;16600;47.444;8.334;2022-09-17T19:07:09;3.97;;;1.35;;
29688;SDS011;16600;47.444;8.334;2022-09-17T19:12:01;3.75;;;1.33;;
29688;SDS011;16600;47.444;8.334;2022-09-17T19:14:30;5.28;;;0.93;;
29688;SDS011;16600;47.444;8.334;2022-09-17T19:30:48;5.10;;;1.13;;
29688;SDS011;16600;47.444;8.334;2022-09-17T19:33:15;4.68;;;1.10;;
29688;SDS011;16600;47.444;8.334;2022-09-17T19:35:41;4.80;;;1.40;;
29688;SDS011;16600;47.444;8.334;2022-09-17T19:38:07;4.40;;;1.45;;
29688;SDS011;16600;47.444;8.334;2022-09-17T19:40:33;4.25;;;1.80;;
29688;SDS011;16600;47.444;8.334;2022-09-17T19:45:28;5.90;;;1.20;;
29688;SDS011;16600;47.444;8.334;2022-09-17T19:47:54;2.22;;;0.93;;
29688;SDS011;16600;47.444;8.334;2022-09-17T19:50:26;7.25;;;1.58;;
29688;SDS011;16600;47.444;8.334;2022-09-17T19:52:52;7.90;;;1.85;;
29688;SDS011;16600;47.444;8.334;2022-09-17T19:55:18;5.28;;;1.10;;
29688;SDS011;16600;47.444;8.334;2022-09-17T19:57:46;2.78;;;1.35;;
29688;SDS011;16600;47.444;8.334;2022-09-17T20:00:12;3.03;;;1.63;;
29688;SDS011;16600;47.444;8.334;2022-09-17T20:02:39;3.85;;;1.65;;
29688;SDS011;16600;47.444;8.334;2022-09-17T20:05:05;6.43;;;1.67;;
29688;SDS011;16600;47.444;8.334;2022-09-17T20:09:58;3.60;;;1.00;;
29688;SDS011;16600;47.444;8.334;2022-09-17T20:14:50;3.42;;;1.40;;